• Join FlightAware (Why Join?)
  • Login
  • US Flag 
04:16AM EDT


 

Airport Tracker/Info


-or-


 

Live Flight TrackerFlight Track Log ✈ N496DA ✈ 15-Feb-2014 ✈ KAPF - KGNV

Flight Track Log - Related Links

Times and Time Zones

All times are in EST time to prevent confusion due to time zone crossing. See the N496DA flight status page for this flight to view local times or setup timezone preferences in your user account.

Time Position Orientation Groundspeed Altitude Reporting Facility
EST Latitude Longitude Course Direction KTS MPH feet Rate Location/Type
02:25PM 26.3378 -81.7833 North  Level FlightAware Approximate
02:26PM 26.3693 -81.7837 353° North  Level FlightAware Approximate
02:27PM 26.4005 -81.7879 353° North  Level FlightAware Approximate
02:28PM 26.4317 -81.7922 353° North  Level FlightAware Approximate
02:29PM 26.4629 -81.7964 353° North  Level FlightAware Approximate
02:30PM 26.4942 -81.8007 353° North  Level FlightAware Approximate
02:31PM 26.5254 -81.8049 353° North  Level FlightAware Approximate
02:32PM 26.5566 -81.8092 353° North  Level FlightAware Approximate
02:33PM 26.5878 -81.8135 353° North  Level FlightAware Approximate
02:34PM 26.6190 -81.8177 353° North  Level FlightAware Approximate
02:35PM 26.6502 -81.8220 353° North  Level FlightAware Approximate
02:36PM 26.6814 -81.8262 353° North  Level FlightAware Approximate
02:37PM 26.7126 -81.8305 353° North  Level FlightAware Approximate
02:38PM 26.7439 -81.8343 355° North  Level FlightAware Approximate
02:39PM 26.7752 -81.8371 355° North  Level FlightAware Approximate
02:40PM 26.8066 -81.8400 355° North  Level FlightAware Approximate
02:40PM 26.8178 -81.7256 355° North 121 139 6,000  Level Miami Center
02:41PM 26.8379 -81.8428 355° North  Level FlightAware Approximate
02:41PM 26.8508 -81.7342 347° North 126 145 6,000  Level Miami Center
02:42PM 26.8692 -81.8457 355° North  Level FlightAware Approximate
02:42PM 26.8861 -81.7447 345° North 126 145 6,000  Level Miami Center
02:43PM 26.9006 -81.8485 355° North  Level FlightAware Approximate
02:43PM 26.9233 -81.7533 348° North 121 139 6,000  Level Miami Center
02:44PM 26.9319 -81.8514 355° North  Level FlightAware Approximate
02:44PM 26.9564 -81.7594 351° North 121 139 6,000  Level Miami Center
02:45PM 26.9875 -81.7678 347° North 121 139 6,000  Level Miami Center
02:46PM 27.0228 -81.7739 351° North 121 139 6,000  Level Miami Center
02:47PM 27.0539 -81.7844 343° North 121 139 6,000  Level Miami Center
02:48PM 27.0867 -81.8000 337° Northwest 126 145 6,000  Level Miami Center
02:49PM 27.1178 -81.8036 354° North 121 139 6,000  Level Miami Center
02:50PM 27.1489 -81.8094 351° North 121 139 6,000  Level Miami Center
02:51PM 27.1800 -81.8156 350° North 116 133 6,000  Level Miami Center
02:52PM 27.2111 -81.8217 350° North 116 133 6,000  Level Miami Center
02:53PM 27.2444 -81.8275 351° North 116 133 6,000  Level Miami Center
02:54PM 27.2756 -81.8336 350° North 116 133 6,000  Level Miami Center
02:55PM 27.3044 -81.8419 346° North 116 133 6,000  Level Miami Center
02:56PM 27.3356 -81.8478 351° North 116 133 6,000  Level Miami Center
02:57PM 27.3644 -81.8539 349° North 110 127 6,000  Level Miami Center
02:58PM 27.3956 -81.8600 350° North 105 121 6,000  Level Miami Center
02:59PM 27.4267 -81.8658 351° North 105 121 6,000  Level Miami Center
03:00PM 27.4578 -81.8719 350° North 105 121 6,000  Level Miami Center
03:01PM 27.4889 -81.8803 347° North 105 121 6,000  Level Miami Center
03:02PM 27.5178 -81.8886 346° North 105 121 6,000  Level Miami Center
03:03PM 27.5444 -81.8969 345° North 105 121 6,000  Level Miami Center
03:04PM 27.5797 -81.9078 345° North 105 121 6,000  Level Miami Center
03:05PM 27.6064 -81.9158 345° North 105 121 6,000  Level Miami Center
03:06PM 27.6375 -81.9242 347° North 105 121 6,000  Level Miami Center
03:07PM 27.6725 -81.9353 344° North 105 121 6,000  Level Miami Center
03:08PM 27.7036 -81.9436 347° North 105 121 6,000  Level Miami Center
03:09PM 27.7347 -81.9519 347° North 110 127 6,000  Level Miami Center
03:10PM 27.7636 -81.9603 346° North 110 127 6,000  Level Miami Center
03:11PM 27.7947 -81.9664 350° North 110 127 6,000  Level Miami Center
03:13PM 27.8500 -81.9833 345° North 111 128 6,000  Level Tampa TRACON
03:14PM 27.8833 -81.9833 360° North 111 128 6,000  Level Tampa TRACON
03:15PM 27.9000 -82.0000 319° Northwest 110 127 6,000  Level Tampa TRACON
03:16PM 27.9333 -82.0000 360° North 111 128 6,000  Level Tampa TRACON
03:17PM 27.9667 -82.0167 336° Northwest 112 129 6,000  Level Tampa TRACON
03:18PM 28.0000 -82.0167 360° North 115 132 6,000  Level Tampa TRACON
03:19PM 28.0333 -82.0167 360° North 116 133 6,000  Level Tampa TRACON
03:20PM 28.0667 -82.0333 336° Northwest 114 131 6,000  Level Tampa TRACON
03:21PM 28.1000 -82.0333 360° North 111 128 6,000  Level Tampa TRACON
03:22PM 28.1167 -82.0333 360° North 109 125 6,000  Level Tampa TRACON
03:23PM 28.1500 -82.0333 360° North 113 130 6,000  Level Tampa TRACON
03:24PM 28.1833 -82.0500 336° Northwest 113 130 6,000  Level Tampa TRACON
03:25PM 28.2167 -82.0500 360° North 110 127 6,000  Level Tampa TRACON
03:26PM 28.2500 -82.0500 360° North 109 125 6,000  Level Tampa TRACON
03:27PM 28.2833 -82.0667 336° Northwest 110 127 6,000  Level Tampa TRACON
03:28PM 28.3000 -82.0667 360° North 112 129 6,000  Level Tampa TRACON
03:29PM 28.3333 -82.0667 360° North 112 129 6,000  Level Tampa TRACON
03:30PM 28.3667 -82.0667 360° North 113 130 6,000  Level Tampa TRACON
03:31PM 28.4000 -82.0833 336° Northwest 111 128 6,000  Level Tampa TRACON
03:32PM 28.4333 -82.0833 360° North 113 130 6,000  Level Tampa TRACON
03:33PM 28.4667 -82.0833 360° North 112 129 6,000  Level Tampa TRACON
03:34PM 28.5042 -82.0917 349° North 111 128 6,100  Climbing Jacksonville Center
03:35PM 28.5356 -82.0986 349° North 110 127 6,000 -60 Descending Jacksonville Center
03:36PM 28.5689 -82.1006 357° North 110 127 6,000  Level Jacksonville Center
03:37PM 28.5961 -82.1075 347° North 110 127 6,000  Level Jacksonville Center
03:38PM 28.6275 -82.1097 356° North 107 123 6,000  Level Jacksonville Center
03:39PM 28.6589 -82.1164 349° North 111 128 6,100  Climbing Jacksonville Center
03:40PM 28.6881 -82.1186 356° North 107 123 6,100  Level Jacksonville Center
03:41PM 28.7217 -82.1278 347° North 107 123 6,100  Level Jacksonville Center
03:42PM 28.7528 -82.1300 356° North 109 125 6,100  Level Jacksonville Center
03:43PM 28.7822 -82.1369 348° North 111 128 6,100  Level Jacksonville Center
03:44PM 28.8133 -82.1414 353° North 110 127 6,100  Level Jacksonville Center
03:45PM 28.8428 -82.1436 356° North 109 125 6,100  Level Jacksonville Center
03:46PM 28.8739 -82.1481 353° North 113 130 6,100  Level Jacksonville Center
03:47PM 28.9053 -82.1503 356° North 113 130 6,100  Level Jacksonville Center
03:48PM 28.9325 -82.1594 344° North 109 125 6,100  Level Jacksonville Center
03:50PM 28.9722 -82.1639 354° North 111 128 6,100 -60 Level Jacksonville Center
03:50PM 29.0014 -82.1661 356° North 113 130 6,000  Descending Jacksonville Center
03:51PM 29.0286 -82.1683 356° North 112 129 6,100  Climbing Jacksonville Center
03:52PM 29.0642 -82.1608 10° North 121 139 6,100  Level Jacksonville Center
03:53PM 29.0994 -82.1558 North 119 137 6,100  Level Jacksonville Center
03:55PM 29.1308 -82.1508 North 118 136 6,100 -240 Level Jacksonville Center
03:56PM 29.1661 -82.1458 North 121 139 5,700 -420 Descending Jacksonville Center
03:57PM 29.1997 -82.1408 North 119 137 5,300 -480 Descending Jacksonville Center
03:58PM 29.2331 -82.1383 North 118 136 4,800 -480 Descending Jacksonville Center
03:59PM 29.2664 -82.1308 11° North 112 129 4,300 -420 Descending Jacksonville Center
04:00PM 29.2978 -82.1306 360° North 113 130 4,000 -480 Descending Jacksonville Center
04:01PM 29.3311 -82.1281 North 120 138 3,400 -480 Descending Jacksonville Center
04:02PM 29.3664 -82.1278 360° North 122 140 3,100 -240 Descending Jacksonville Center
04:03PM 29.4019 -82.1297 357° North 118 136 3,000  Descending Jacksonville Center
04:04PM 29.4250 -82.1225 15° North 114 131 3,100  Climbing Jacksonville Center
04:05PM 29.4561 -82.1128 15° North 116 133 3,000  Descending Jacksonville Center
04:06PM 29.4875 -82.1028 15° North 117 135 3,100  Climbing Jacksonville Center
04:07PM 29.5208 -82.0978 North 121 139 3,100  Level Jacksonville Center
04:08PM 29.5583 -82.0856 16° North 119 137 3,100 -180 Level Jacksonville Center
04:09PM 29.5894 -82.0781 12° North 120 138 2,800 -360 Descending Jacksonville Center
04:10PM 29.6231 -82.0683 14° North 125 144 2,400 -480 Descending Jacksonville Center
04:11PM 29.6481 -82.0872 327° Northwest 119 137 1,900 -420 Descending Jacksonville Center
04:12PM 29.6567 -82.1183 288° West 116 133 1,700 -120 Descending Jacksonville Center
04:13PM 29.6631 -82.1539 282° West 81 93 1,700 -120 Level Jacksonville Center
04:14PM 29.6675 -82.1778 282° West 83 96 1,500 -420 Descending Jacksonville Center
04:15PM 29.6717 -82.2017 281° West 78 90 1,000 -480 Descending Jacksonville Center
04:16PM 29.6781 -82.2281 286° West 84 97 600 -240 Descending Jacksonville Center
04:17PM 29.6822 -82.2375 297° West 85 98 600  Level Jacksonville Center
04:19PM 29.6822 -82.2375 360° North 85 98 600  Level Jacksonville Center